sensor_id;sensor_type;location;lat;lon;timestamp;temperature;humidity
13794;DHT22;31160;49.500;7.772;2023-05-23T00:00:14;16.90;99.90
13794;DHT22;31160;49.500;7.772;2023-05-23T00:02:42;16.70;99.90
13794;DHT22;31160;49.500;7.772;2023-05-23T00:05:09;16.50;99.90
13794;DHT22;31160;49.500;7.772;2023-05-23T00:07:36;16.50;99.90
13794;DHT22;31160;49.500;7.772;2023-05-23T00:10:03;16.60;99.90
13794;DHT22;31160;49.500;7.772;2023-05-23T00:12:30;16.40;99.90
13794;DHT22;31160;49.500;7.772;2023-05-23T00:14:57;16.50;99.90
13794;DHT22;31160;49.500;7.772;2023-05-23T00:17:23;16.40;99.90
13794;DHT22;31160;49.500;7.772;2023-05-23T00:19:51;16.40;99.90
13794;DHT22;31160;49.500;7.772;2023-05-23T00:22:18;16.40;99.90
13794;DHT22;31160;49.500;7.772;2023-05-23T00:24:45;16.40;99.90
13794;DHT22;31160;49.500;7.772;2023-05-23T00:27:12;16.20;99.90
13794;DHT22;31160;49.500;7.772;2023-05-23T00:29:39;16.30;99.90
13794;DHT22;31160;49.500;7.772;2023-05-23T00:32:06;16.30;99.90
13794;DHT22;31160;49.500;7.772;2023-05-23T00:34:32;16.20;99.90
13794;DHT22;31160;49.500;7.772;2023-05-23T00:37:00;16.30;99.90
13794;DHT22;31160;49.500;7.772;2023-05-23T00:39:27;16.20;99.90
13794;DHT22;31160;49.500;7.772;2023-05-23T00:41:55;16.30;99.90
13794;DHT22;31160;49.500;7.772;2023-05-23T00:44:22;16.20;99.90
13794;DHT22;31160;49.500;7.772;2023-05-23T00:46:54;16.10;99.90
13794;DHT22;31160;49.500;7.772;2023-05-23T00:49:22;16.10;99.90
13794;DHT22;31160;49.500;7.772;2023-05-23T00:51:50;16.00;99.90
13794;DHT22;31160;49.500;7.772;2023-05-23T00:54:20;15.90;99.90
13794;DHT22;31160;49.500;7.772;2023-05-23T00:56:49;15.90;99.90
13794;DHT22;31160;49.500;7.772;2023-05-23T00:59:16;15.90;99.90
13794;DHT22;31160;49.500;7.772;2023-05-23T01:01:43;16.00;99.90
13794;DHT22;31160;49.500;7.772;2023-05-23T01:04:13;16.00;99.90
13794;DHT22;31160;49.500;7.772;2023-05-23T01:06:39;15.80;99.90
13794;DHT22;31160;49.500;7.772;2023-05-23T01:09:06;15.80;99.90
13794;DHT22;31160;49.500;7.772;2023-05-23T01:11:44;15.80;99.90
13794;DHT22;31160;49.500;7.772;2023-05-23T01:14:20;15.80;99.90
13794;DHT22;31160;49.500;7.772;2023-05-23T01:17:02;15.80;99.90
13794;DHT22;31160;49.500;7.772;2023-05-23T01:19:48;15.90;99.90
13794;DHT22;31160;49.500;7.772;2023-05-23T01:27:52;15.60;99.90
13794;DHT22;31160;49.500;7.772;2023-05-23T01:30:20;15.60;99.90
13794;DHT22;31160;49.500;7.772;2023-05-23T01:32:48;15.60;99.90
13794;DHT22;31160;49.500;7.772;2023-05-23T01:35:21;15.60;99.90
13794;DHT22;31160;49.500;7.772;2023-05-23T01:37:49;15.60;99.90
13794;DHT22;31160;49.500;7.772;2023-05-23T01:40:15;15.50;99.90
13794;DHT22;31160;49.500;7.772;2023-05-23T01:42:42;15.60;99.90
13794;DHT22;31160;49.500;7.772;2023-05-23T01:45:09;15.70;99.90
13794;DHT22;31160;49.500;7.772;2023-05-23T01:47:38;15.70;99.90
13794;DHT22;31160;49.500;7.772;2023-05-23T01:50:07;15.70;99.90
13794;DHT22;31160;49.500;7.772;2023-05-23T01:52:35;15.70;99.90
13794;DHT22;31160;49.500;7.772;2023-05-23T01:55:04;15.80;99.90
13794;DHT22;31160;49.500;7.772;2023-05-23T01:57:36;15.80;99.90
13794;DHT22;31160;49.500;7.772;2023-05-23T02:00:04;15.80;99.90
13794;DHT22;31160;49.500;7.772;2023-05-23T02:02:39;15.80;99.90
13794;DHT22;31160;49.500;7.772;2023-05-23T02:05:06;15.60;99.90
13794;DHT22;31160;49.500;7.772;2023-05-23T02:07:34;15.60;99.90
13794;DHT22;31160;49.500;7.772;2023-05-23T02:10:02;15.50;99.90
13794;DHT22;31160;49.500;7.772;2023-05-23T02:12:29;15.50;99.90
13794;DHT22;31160;49.500;7.772;2023-05-23T02:14:57;15.60;99.90
13794;DHT22;31160;49.500;7.772;2023-05-23T02:17:24;15.60;99.90
13794;DHT22;31160;49.500;7.772;2023-05-23T02:19:51;15.60;99.90
13794;DHT22;31160;49.500;7.772;2023-05-23T02:22:22;15.60;99.90
13794;DHT22;31160;49.500;7.772;2023-05-23T02:24:50;15.70;99.90
13794;DHT22;31160;49.500;7.772;2023-05-23T02:27:17;15.70;99.90
13794;DHT22;31160;49.500;7.772;2023-05-23T02:29:44;15.70;99.90
13794;DHT22;31160;49.500;7.772;2023-05-23T02:32:11;15.80;99.90
13794;DHT22;31160;49.500;7.772;2023-05-23T02:34:38;15.80;99.90
13794;DHT22;31160;49.500;7.772;2023-05-23T02:37:06;15.80;99.90
13794;DHT22;31160;49.500;7.772;2023-05-23T02:39:34;16.00;99.90
13794;DHT22;31160;49.500;7.772;2023-05-23T02:42:02;15.90;99.90
13794;DHT22;31160;49.500;7.772;2023-05-23T02:44:30;15.90;99.90
13794;DHT22;31160;49.500;7.772;2023-05-23T02:46:57;15.70;99.90
13794;DHT22;31160;49.500;7.772;2023-05-23T02:49:24;15.70;99.90
13794;DHT22;31160;49.500;7.772;2023-05-23T02:51:51;15.70;99.90
13794;DHT22;31160;49.500;7.772;2023-05-23T02:54:18;15.70;99.90
13794;DHT22;31160;49.500;7.772;2023-05-23T02:56:45;15.60;99.90
13794;DHT22;31160;49.500;7.772;2023-05-23T02:59:12;15.60;99.90
13794;DHT22;31160;49.500;7.772;2023-05-23T03:01:39;15.60;99.90
13794;DHT22;31160;49.500;7.772;2023-05-23T03:04:06;15.50;99.90
13794;DHT22;31160;49.500;7.772;2023-05-23T03:06:33;15.40;99.90
13794;DHT22;31160;49.500;7.772;2023-05-23T03:09:02;15.40;99.90
13794;DHT22;31160;49.500;7.772;2023-05-23T03:11:29;15.40;99.90
13794;DHT22;31160;49.500;7.772;2023-05-23T03:13:58;15.40;99.90
13794;DHT22;31160;49.500;7.772;2023-05-23T03:16:25;15.40;99.90
13794;DHT22;31160;49.500;7.772;2023-05-23T03:18:52;15.50;99.90
13794;DHT22;31160;49.500;7.772;2023-05-23T03:21:19;15.40;99.90
13794;DHT22;31160;49.500;7.772;2023-05-23T03:23:46;15.40;99.90
13794;DHT22;31160;49.500;7.772;2023-05-23T03:26:13;15.40;99.90
13794;DHT22;31160;49.500;7.772;2023-05-23T03:28:40;15.40;99.90
13794;DHT22;31160;49.500;7.772;2023-05-23T03:31:07;15.30;99.90
13794;DHT22;31160;49.500;7.772;2023-05-23T03:33:33;15.30;99.90
13794;DHT22;31160;49.500;7.772;2023-05-23T03:36:03;15.30;99.90
13794;DHT22;31160;49.500;7.772;2023-05-23T03:38:30;15.20;99.90
13794;DHT22;31160;49.500;7.772;2023-05-23T03:40:56;15.30;99.90
13794;DHT22;31160;49.500;7.772;2023-05-23T03:43:23;15.20;99.90
13794;DHT22;31160;49.500;7.772;2023-05-23T03:45:50;15.30;99.90
13794;DHT22;31160;49.500;7.772;2023-05-23T03:48:17;15.30;99.90
13794;DHT22;31160;49.500;7.772;2023-05-23T03:50:46;15.20;99.90
13794;DHT22;31160;49.500;7.772;2023-05-23T03:53:13;15.20;99.90
13794;DHT22;31160;49.500;7.772;2023-05-23T03:55:41;15.30;99.90
13794;DHT22;31160;49.500;7.772;2023-05-23T03:58:08;15.40;99.90
13794;DHT22;31160;49.500;7.772;2023-05-23T04:00:35;15.40;99.90
13794;DHT22;31160;49.500;7.772;2023-05-23T04:03:05;15.40;99.90
13794;DHT22;31160;49.500;7.772;2023-05-23T04:05:32;15.50;99.90
13794;DHT22;31160;49.500;7.772;2023-05-23T04:07:59;15.50;99.90
13794;DHT22;31160;49.500;7.772;2023-05-23T04:10:29;15.60;99.90
13794;DHT22;31160;49.500;7.772;2023-05-23T04:12:57;15.50;99.90
13794;DHT22;31160;49.500;7.772;2023-05-23T04:15:24;15.60;99.90
13794;DHT22;31160;49.500;7.772;2023-05-23T04:17:57;15.60;99.90
13794;DHT22;31160;49.500;7.772;2023-05-23T04:20:25;15.70;99.90
13794;DHT22;31160;49.500;7.772;2023-05-23T04:22:52;15.70;99.90
13794;DHT22;31160;49.500;7.772;2023-05-23T04:25:19;15.70;99.90
13794;DHT22;31160;49.500;7.772;2023-05-23T04:27:57;15.80;99.90
13794;DHT22;31160;49.500;7.772;2023-05-23T04:30:25;15.80;99.90
13794;DHT22;31160;49.500;7.772;2023-05-23T04:32:52;15.90;99.90
13794;DHT22;31160;49.500;7.772;2023-05-23T04:35:19;16.00;99.90
13794;DHT22;31160;49.500;7.772;2023-05-23T04:37:46;16.00;99.90
13794;DHT22;31160;49.500;7.772;2023-05-23T04:40:13;16.00;99.90
13794;DHT22;31160;49.500;7.772;2023-05-23T04:43:03;16.00;99.90
13794;DHT22;31160;49.500;7.772;2023-05-23T04:45:36;16.00;99.90
13794;DHT22;31160;49.500;7.772;2023-05-23T04:48:16;16.10;99.90
13794;DHT22;31160;49.500;7.772;2023-05-23T04:50:47;16.10;99.90
13794;DHT22;31160;49.500;7.772;2023-05-23T04:53:14;16.10;99.90
13794;DHT22;31160;49.500;7.772;2023-05-23T04:55:41;16.20;99.90
13794;DHT22;31160;49.500;7.772;2023-05-23T04:58:13;16.20;99.90
13794;DHT22;31160;49.500;7.772;2023-05-23T05:00:40;16.30;99.90
13794;DHT22;31160;49.500;7.772;2023-05-23T05:03:08;16.20;99.90
13794;DHT22;31160;49.500;7.772;2023-05-23T05:05:41;16.30;99.90
13794;DHT22;31160;49.500;7.772;2023-05-23T05:08:08;16.50;99.90
13794;DHT22;31160;49.500;7.772;2023-05-23T05:10:34;16.60;99.90
13794;DHT22;31160;49.500;7.772;2023-05-23T05:13:02;16.60;99.90
13794;DHT22;31160;49.500;7.772;2023-05-23T05:15:37;16.60;99.90
13794;DHT22;31160;49.500;7.772;2023-05-23T05:18:03;16.70;99.90
13794;DHT22;31160;49.500;7.772;2023-05-23T05:20:30;16.30;99.90
13794;DHT22;31160;49.500;7.772;2023-05-23T05:22:57;16.50;99.90
13794;DHT22;31160;49.500;7.772;2023-05-23T05:25:24;16.50;99.90
13794;DHT22;31160;49.500;7.772;2023-05-23T05:27:52;16.60;99.90
13794;DHT22;31160;49.500;7.772;2023-05-23T05:30:20;16.60;99.90
13794;DHT22;31160;49.500;7.772;2023-05-23T05:33:00;16.50;99.90
13794;DHT22;31160;49.500;7.772;2023-05-23T05:35:27;16.60;99.90
13794;DHT22;31160;49.500;7.772;2023-05-23T05:37:55;16.60;99.90
13794;DHT22;31160;49.500;7.772;2023-05-23T05:40:22;16.70;99.90
13794;DHT22;31160;49.500;7.772;2023-05-23T05:42:49;16.80;99.90
13794;DHT22;31160;49.500;7.772;2023-05-23T05:45:17;16.60;99.90
13794;DHT22;31160;49.500;7.772;2023-05-23T05:47:45;16.50;99.90
13794;DHT22;31160;49.500;7.772;2023-05-23T05:50:12;16.60;99.90
13794;DHT22;31160;49.500;7.772;2023-05-23T05:52:40;16.30;99.90
13794;DHT22;31160;49.500;7.772;2023-05-23T05:55:09;16.40;99.90
13794;DHT22;31160;49.500;7.772;2023-05-23T05:57:44;16.30;99.90
13794;DHT22;31160;49.500;7.772;2023-05-23T06:00:12;16.20;99.90
13794;DHT22;31160;49.500;7.772;2023-05-23T06:02:45;16.30;99.90
13794;DHT22;31160;49.500;7.772;2023-05-23T06:05:37;16.60;99.90
13794;DHT22;31160;49.500;7.772;2023-05-23T06:08:05;16.70;99.90
13794;DHT22;31160;49.500;7.772;2023-05-23T06:10:32;16.80;99.90
13794;DHT22;31160;49.500;7.772;2023-05-23T06:12:59;16.60;99.90
13794;DHT22;31160;49.500;7.772;2023-05-23T06:15:26;16.50;99.90
13794;DHT22;31160;49.500;7.772;2023-05-23T06:17:53;16.50;99.90
13794;DHT22;31160;49.500;7.772;2023-05-23T06:20:20;16.60;99.90
13794;DHT22;31160;49.500;7.772;2023-05-23T06:22:48;16.70;99.90
13794;DHT22;31160;49.500;7.772;2023-05-23T06:25:15;16.80;99.90
13794;DHT22;31160;49.500;7.772;2023-05-23T06:27:42;16.90;99.90
13794;DHT22;31160;49.500;7.772;2023-05-23T06:30:10;16.60;99.90
13794;DHT22;31160;49.500;7.772;2023-05-23T06:32:38;16.50;99.90
13794;DHT22;31160;49.500;7.772;2023-05-23T06:35:06;16.50;99.90
13794;DHT22;31160;49.500;7.772;2023-05-23T06:37:33;16.40;99.90
13794;DHT22;31160;49.500;7.772;2023-05-23T06:40:00;16.60;99.90
13794;DHT22;31160;49.500;7.772;2023-05-23T06:42:27;16.80;99.90
13794;DHT22;31160;49.500;7.772;2023-05-23T06:45:02;16.60;99.90
13794;DHT22;31160;49.500;7.772;2023-05-23T06:47:31;16.40;99.90
13794;DHT22;31160;49.500;7.772;2023-05-23T06:49:57;16.30;99.90
13794;DHT22;31160;49.500;7.772;2023-05-23T06:52:24;16.30;99.90
13794;DHT22;31160;49.500;7.772;2023-05-23T06:54:51;16.20;99.90
13794;DHT22;31160;49.500;7.772;2023-05-23T06:57:18;16.20;99.90
13794;DHT22;31160;49.500;7.772;2023-05-23T06:59:45;16.10;99.90
13794;DHT22;31160;49.500;7.772;2023-05-23T07:02:12;16.00;99.90
13794;DHT22;31160;49.500;7.772;2023-05-23T07:04:39;16.00;99.90
13794;DHT22;31160;49.500;7.772;2023-05-23T07:07:13;16.30;99.90
13794;DHT22;31160;49.500;7.772;2023-05-23T07:09:41;16.70;99.90
13794;DHT22;31160;49.500;7.772;2023-05-23T07:12:14;16.90;99.90
13794;DHT22;31160;49.500;7.772;2023-05-23T07:14:42;17.00;99.90
13794;DHT22;31160;49.500;7.772;2023-05-23T07:17:10;16.50;99.90
13794;DHT22;31160;49.500;7.772;2023-05-23T07:19:37;16.50;99.90
13794;DHT22;31160;49.500;7.772;2023-05-23T07:22:05;16.50;99.90
13794;DHT22;31160;49.500;7.772;2023-05-23T07:24:34;16.70;99.90
13794;DHT22;31160;49.500;7.772;2023-05-23T07:27:04;16.60;99.90
13794;DHT22;31160;49.500;7.772;2023-05-23T07:29:33;16.20;99.90
13794;DHT22;31160;49.500;7.772;2023-05-23T07:32:00;16.30;99.90
13794;DHT22;31160;49.500;7.772;2023-05-23T07:34:27;16.40;99.90
13794;DHT22;31160;49.500;7.772;2023-05-23T07:36:58;16.50;99.90
13794;DHT22;31160;49.500;7.772;2023-05-23T07:39:29;16.60;99.90
13794;DHT22;31160;49.500;7.772;2023-05-23T07:41:58;16.60;99.90
13794;DHT22;31160;49.500;7.772;2023-05-23T07:44:25;16.60;99.90
13794;DHT22;31160;49.500;7.772;2023-05-23T07:46:52;16.70;99.90
13794;DHT22;31160;49.500;7.772;2023-05-23T07:49:20;16.70;99.90
13794;DHT22;31160;49.500;7.772;2023-05-23T07:51:47;16.50;99.90
13794;DHT22;31160;49.500;7.772;2023-05-23T07:54:14;16.60;99.90
13794;DHT22;31160;49.500;7.772;2023-05-23T07:56:42;16.90;99.90
13794;DHT22;31160;49.500;7.772;2023-05-23T07:59:09;16.70;99.90
13794;DHT22;31160;49.500;7.772;2023-05-23T08:01:36;16.70;99.90
13794;DHT22;31160;49.500;7.772;2023-05-23T08:04:05;16.60;99.90
13794;DHT22;31160;49.500;7.772;2023-05-23T08:06:44;16.50;99.90
13794;DHT22;31160;49.500;7.772;2023-05-23T08:09:40;16.40;99.90
13794;DHT22;31160;49.500;7.772;2023-05-23T08:12:10;16.00;99.90
13794;DHT22;31160;49.500;7.772;2023-05-23T08:14:38;16.00;99.90
13794;DHT22;31160;49.500;7.772;2023-05-23T08:17:22;16.20;99.90
13794;DHT22;31160;49.500;7.772;2023-05-23T08:19:50;16.10;99.90
13794;DHT22;31160;49.500;7.772;2023-05-23T08:22:17;15.90;99.90
13794;DHT22;31160;49.500;7.772;2023-05-23T08:24:43;16.00;99.90
13794;DHT22;31160;49.500;7.772;2023-05-23T08:27:10;16.00;99.90
13794;DHT22;31160;49.500;7.772;2023-05-23T08:29:37;16.00;99.90
13794;DHT22;31160;49.500;7.772;2023-05-23T08:32:05;16.20;99.90
13794;DHT22;31160;49.500;7.772;2023-05-23T08:34:33;16.50;99.90
13794;DHT22;31160;49.500;7.772;2023-05-23T08:36:59;17.10;99.90
13794;DHT22;31160;49.500;7.772;2023-05-23T08:39:26;17.80;99.90
13794;DHT22;31160;49.500;7.772;2023-05-23T08:42:07;18.40;99.90
13794;DHT22;31160;49.500;7.772;2023-05-23T08:44:34;18.80;99.90
13794;DHT22;31160;49.500;7.772;2023-05-23T08:47:03;18.90;99.90
13794;DHT22;31160;49.500;7.772;2023-05-23T08:49:54;18.70;99.90
13794;DHT22;31160;49.500;7.772;2023-05-23T08:52:24;19.00;99.90
13794;DHT22;31160;49.500;7.772;2023-05-23T08:54:54;19.00;99.90
13794;DHT22;31160;49.500;7.772;2023-05-23T08:57:22;19.10;99.90
13794;DHT22;31160;49.500;7.772;2023-05-23T08:59:55;19.10;99.90
13794;DHT22;31160;49.500;7.772;2023-05-23T09:02:23;18.50;99.90
13794;DHT22;31160;49.500;7.772;2023-05-23T09:04:54;18.50;99.90
13794;DHT22;31160;49.500;7.772;2023-05-23T09:07:24;18.40;99.90
13794;DHT22;31160;49.500;7.772;2023-05-23T09:09:52;18.40;99.90
13794;DHT22;31160;49.500;7.772;2023-05-23T09:12:19;18.60;99.90
13794;DHT22;31160;49.500;7.772;2023-05-23T09:14:49;18.60;99.90
13794;DHT22;31160;49.500;7.772;2023-05-23T09:17:19;18.70;99.90
13794;DHT22;31160;49.500;7.772;2023-05-23T09:19:46;18.80;99.90
13794;DHT22;31160;49.500;7.772;2023-05-23T09:22:24;18.70;99.90
13794;DHT22;31160;49.500;7.772;2023-05-23T09:25:13;18.50;99.90
13794;DHT22;31160;49.500;7.772;2023-05-23T09:27:42;18.50;99.90
13794;DHT22;31160;49.500;7.772;2023-05-23T09:30:14;18.70;99.90
13794;DHT22;31160;49.500;7.772;2023-05-23T09:32:41;18.80;99.90
13794;DHT22;31160;49.500;7.772;2023-05-23T09:35:10;18.80;99.90
13794;DHT22;31160;49.500;7.772;2023-05-23T09:37:42;18.80;99.90
13794;DHT22;31160;49.500;7.772;2023-05-23T09:40:13;18.60;99.90
13794;DHT22;31160;49.500;7.772;2023-05-23T09:42:50;18.60;99.90
13794;DHT22;31160;49.500;7.772;2023-05-23T09:45:17;18.10;99.90
13794;DHT22;31160;49.500;7.772;2023-05-23T09:47:53;18.00;99.90
13794;DHT22;31160;49.500;7.772;2023-05-23T09:50:22;18.00;99.90
13794;DHT22;31160;49.500;7.772;2023-05-23T09:52:49;17.80;99.90
13794;DHT22;31160;49.500;7.772;2023-05-23T09:55:19;17.90;99.90
13794;DHT22;31160;49.500;7.772;2023-05-23T09:57:49;18.00;99.90
13794;DHT22;31160;49.500;7.772;2023-05-23T10:00:18;18.20;99.90
13794;DHT22;31160;49.500;7.772;2023-05-23T10:05:46;17.70;99.90
13794;DHT22;31160;49.500;7.772;2023-05-23T10:08:17;17.70;99.90
13794;DHT22;31160;49.500;7.772;2023-05-23T10:11:21;17.90;99.90
13794;DHT22;31160;49.500;7.772;2023-05-23T10:13:54;18.00;99.90
13794;DHT22;31160;49.500;7.772;2023-05-23T10:16:30;17.60;99.90
13794;DHT22;31160;49.500;7.772;2023-05-23T10:19:05;17.50;99.90
13794;DHT22;31160;49.500;7.772;2023-05-23T10:21:37;17.50;99.90
13794;DHT22;31160;49.500;7.772;2023-05-23T10:24:06;17.60;99.90
13794;DHT22;31160;49.500;7.772;2023-05-23T10:26:34;17.60;99.90
13794;DHT22;31160;49.500;7.772;2023-05-23T10:29:02;17.30;99.90
13794;DHT22;31160;49.500;7.772;2023-05-23T10:31:29;17.50;99.90
13794;DHT22;31160;49.500;7.772;2023-05-23T10:37:02;17.50;99.90
13794;DHT22;31160;49.500;7.772;2023-05-23T10:39:45;17.40;99.90
13794;DHT22;31160;49.500;7.772;2023-05-23T10:42:18;17.50;99.90
13794;DHT22;31160;49.500;7.772;2023-05-23T10:44:46;17.30;99.90
13794;DHT22;31160;49.500;7.772;2023-05-23T10:47:24;17.30;99.90
13794;DHT22;31160;49.500;7.772;2023-05-23T10:49:53;17.20;99.90
13794;DHT22;31160;49.500;7.772;2023-05-23T10:52:23;17.40;99.90
13794;DHT22;31160;49.500;7.772;2023-05-23T10:54:54;17.60;99.90
13794;DHT22;31160;49.500;7.772;2023-05-23T10:57:24;17.60;99.90
13794;DHT22;31160;49.500;7.772;2023-05-23T10:59:54;17.60;99.90
13794;DHT22;31160;49.500;7.772;2023-05-23T11:02:26;17.90;99.90
13794;DHT22;31160;49.500;7.772;2023-05-23T11:08:12;18.50;99.90
13794;DHT22;31160;49.500;7.772;2023-05-23T11:10:59;19.30;99.90
13794;DHT22;31160;49.500;7.772;2023-05-23T11:13:57;19.80;99.90
13794;DHT22;31160;49.500;7.772;2023-05-23T11:16:42;18.80;99.90
13794;DHT22;31160;49.500;7.772;2023-05-23T11:21:52;18.40;99.90
13794;DHT22;31160;49.500;7.772;2023-05-23T11:24:19;18.50;99.90
13794;DHT22;31160;49.500;7.772;2023-05-23T11:26:58;18.40;99.90
13794;DHT22;31160;49.500;7.772;2023-05-23T11:29:29;18.60;99.90
13794;DHT22;31160;49.500;7.772;2023-05-23T11:31:56;18.70;99.90
13794;DHT22;31160;49.500;7.772;2023-05-23T11:34:26;18.60;99.90
13794;DHT22;31160;49.500;7.772;2023-05-23T11:36:54;18.60;99.90
13794;DHT22;31160;49.500;7.772;2023-05-23T11:39:22;18.80;99.90
13794;DHT22;31160;49.500;7.772;2023-05-23T11:41:59;18.30;99.90
13794;DHT22;31160;49.500;7.772;2023-05-23T11:44:26;18.00;99.90
13794;DHT22;31160;49.500;7.772;2023-05-23T11:47:04;17.90;99.90
13794;DHT22;31160;49.500;7.772;2023-05-23T11:49:37;18.10;99.90
13794;DHT22;31160;49.500;7.772;2023-05-23T11:52:05;18.00;99.90
13794;DHT22;31160;49.500;7.772;2023-05-23T11:54:34;18.10;99.90
13794;DHT22;31160;49.500;7.772;2023-05-23T11:57:02;18.50;99.90
13794;DHT22;31160;49.500;7.772;2023-05-23T11:59:29;18.50;99.90
13794;DHT22;31160;49.500;7.772;2023-05-23T12:01:56;18.40;99.90
13794;DHT22;31160;49.500;7.772;2023-05-23T12:04:24;18.20;99.90
13794;DHT22;31160;49.500;7.772;2023-05-23T12:06:52;17.70;99.90
13794;DHT22;31160;49.500;7.772;2023-05-23T12:09:19;18.30;99.90
13794;DHT22;31160;49.500;7.772;2023-05-23T12:11:48;18.40;99.90
13794;DHT22;31160;49.500;7.772;2023-05-23T12:14:16;18.40;99.90
13794;DHT22;31160;49.500;7.772;2023-05-23T12:16:44;18.30;99.90
13794;DHT22;31160;49.500;7.772;2023-05-23T12:19:15;17.70;99.90
13794;DHT22;31160;49.500;7.772;2023-05-23T12:21:48;17.80;99.90
13794;DHT22;31160;49.500;7.772;2023-05-23T12:24:20;17.90;99.90
13794;DHT22;31160;49.500;7.772;2023-05-23T12:26:48;18.40;99.90
13794;DHT22;31160;49.500;7.772;2023-05-23T12:29:17;18.60;99.90
13794;DHT22;31160;49.500;7.772;2023-05-23T12:31:43;18.50;99.90
13794;DHT22;31160;49.500;7.772;2023-05-23T12:34:12;18.50;99.90
13794;DHT22;31160;49.500;7.772;2023-05-23T12:36:38;18.50;99.90
13794;DHT22;31160;49.500;7.772;2023-05-23T12:39:15;18.40;99.90
13794;DHT22;31160;49.500;7.772;2023-05-23T12:41:43;18.40;99.90
13794;DHT22;31160;49.500;7.772;2023-05-23T12:44:14;18.00;99.90
13794;DHT22;31160;49.500;7.772;2023-05-23T12:46:42;17.90;99.90
13794;DHT22;31160;49.500;7.772;2023-05-23T12:49:09;17.70;99.90
13794;DHT22;31160;49.500;7.772;2023-05-23T12:51:36;18.10;99.90
13794;DHT22;31160;49.500;7.772;2023-05-23T12:54:03;18.70;99.90
13794;DHT22;31160;49.500;7.772;2023-05-23T12:56:30;19.10;99.90
13794;DHT22;31160;49.500;7.772;2023-05-23T12:58:57;19.50;99.90
13794;DHT22;31160;49.500;7.772;2023-05-23T13:01:24;19.50;99.90
13794;DHT22;31160;49.500;7.772;2023-05-23T13:03:50;19.30;99.90
13794;DHT22;31160;49.500;7.772;2023-05-23T13:06:17;18.50;99.90
13794;DHT22;31160;49.500;7.772;2023-05-23T13:08:44;18.40;99.90
13794;DHT22;31160;49.500;7.772;2023-05-23T13:11:12;18.60;99.90
13794;DHT22;31160;49.500;7.772;2023-05-23T13:13:39;18.40;99.90
13794;DHT22;31160;49.500;7.772;2023-05-23T13:16:05;18.10;99.90
13794;DHT22;31160;49.500;7.772;2023-05-23T13:18:32;17.80;99.90
13794;DHT22;31160;49.500;7.772;2023-05-23T13:20:59;18.00;99.90
13794;DHT22;31160;49.500;7.772;2023-05-23T13:23:26;18.30;99.90
13794;DHT22;31160;49.500;7.772;2023-05-23T13:25:53;18.10;99.90
13794;DHT22;31160;49.500;7.772;2023-05-23T13:28:19;18.30;99.90
13794;DHT22;31160;49.500;7.772;2023-05-23T13:30:46;18.20;99.90
13794;DHT22;31160;49.500;7.772;2023-05-23T13:33:13;17.90;99.90
13794;DHT22;31160;49.500;7.772;2023-05-23T13:35:41;18.00;99.90
13794;DHT22;31160;49.500;7.772;2023-05-23T13:38:08;18.10;99.90
13794;DHT22;31160;49.500;7.772;2023-05-23T13:40:35;18.20;99.90
13794;DHT22;31160;49.500;7.772;2023-05-23T13:43:02;18.00;99.90
13794;DHT22;31160;49.500;7.772;2023-05-23T13:45:29;17.80;99.90
13794;DHT22;31160;49.500;7.772;2023-05-23T13:47:56;17.60;99.90
13794;DHT22;31160;49.500;7.772;2023-05-23T13:50:23;17.50;99.90
13794;DHT22;31160;49.500;7.772;2023-05-23T13:52:50;17.40;99.90
13794;DHT22;31160;49.500;7.772;2023-05-23T13:55:17;17.80;99.90
13794;DHT22;31160;49.500;7.772;2023-05-23T13:57:44;18.20;99.90
13794;DHT22;31160;49.500;7.772;2023-05-23T14:00:12;18.40;99.90
13794;DHT22;31160;49.500;7.772;2023-05-23T14:02:39;18.20;99.90
13794;DHT22;31160;49.500;7.772;2023-05-23T14:05:06;17.80;99.90
13794;DHT22;31160;49.500;7.772;2023-05-23T14:07:33;18.10;99.90
13794;DHT22;31160;49.500;7.772;2023-05-23T14:10:00;18.30;99.90
13794;DHT22;31160;49.500;7.772;2023-05-23T14:12:27;18.10;99.90
13794;DHT22;31160;49.500;7.772;2023-05-23T14:14:54;18.20;99.90
13794;DHT22;31160;49.500;7.772;2023-05-23T14:17:21;17.70;99.90
13794;DHT22;31160;49.500;7.772;2023-05-23T14:19:48;17.80;99.90
13794;DHT22;31160;49.500;7.772;2023-05-23T14:22:15;17.30;99.90
13794;DHT22;31160;49.500;7.772;2023-05-23T14:24:42;17.40;99.90
13794;DHT22;31160;49.500;7.772;2023-05-23T14:27:08;17.70;99.90
13794;DHT22;31160;49.500;7.772;2023-05-23T14:29:37;17.70;99.90
13794;DHT22;31160;49.500;7.772;2023-05-23T14:32:04;18.20;99.90
13794;DHT22;31160;49.500;7.772;2023-05-23T14:34:31;18.20;99.90
13794;DHT22;31160;49.500;7.772;2023-05-23T14:36:59;17.70;99.90
13794;DHT22;31160;49.500;7.772;2023-05-23T14:39:26;17.50;99.90
13794;DHT22;31160;49.500;7.772;2023-05-23T14:41:54;17.70;99.90
13794;DHT22;31160;49.500;7.772;2023-05-23T14:44:21;17.80;99.90
13794;DHT22;31160;49.500;7.772;2023-05-23T14:46:48;17.50;99.90
13794;DHT22;31160;49.500;7.772;2023-05-23T14:49:16;17.30;99.90
13794;DHT22;31160;49.500;7.772;2023-05-23T14:51:43;17.20;99.90
13794;DHT22;31160;49.500;7.772;2023-05-23T14:54:17;17.10;99.90
13794;DHT22;31160;49.500;7.772;2023-05-23T14:56:44;17.50;99.90
13794;DHT22;31160;49.500;7.772;2023-05-23T14:59:11;17.60;99.90
13794;DHT22;31160;49.500;7.772;2023-05-23T15:01:38;17.50;99.90
13794;DHT22;31160;49.500;7.772;2023-05-23T15:04:07;17.50;99.90
13794;DHT22;31160;49.500;7.772;2023-05-23T15:06:35;17.60;99.90
13794;DHT22;31160;49.500;7.772;2023-05-23T15:09:03;17.70;99.90
13794;DHT22;31160;49.500;7.772;2023-05-23T15:11:30;17.50;99.90
13794;DHT22;31160;49.500;7.772;2023-05-23T15:13:57;17.50;99.90
13794;DHT22;31160;49.500;7.772;2023-05-23T15:16:25;17.60;99.90
13794;DHT22;31160;49.500;7.772;2023-05-23T15:18:52;17.50;99.90
13794;DHT22;31160;49.500;7.772;2023-05-23T15:21:19;17.80;99.90
13794;DHT22;31160;49.500;7.772;2023-05-23T15:23:46;17.90;99.90
13794;DHT22;31160;49.500;7.772;2023-05-23T15:26:13;17.90;99.90
13794;DHT22;31160;49.500;7.772;2023-05-23T15:28:40;17.80;99.90
13794;DHT22;31160;49.500;7.772;2023-05-23T15:31:06;17.30;99.90
13794;DHT22;31160;49.500;7.772;2023-05-23T15:33:33;17.30;99.90
13794;DHT22;31160;49.500;7.772;2023-05-23T15:36:00;17.30;99.90
13794;DHT22;31160;49.500;7.772;2023-05-23T15:38:27;17.40;99.90
13794;DHT22;31160;49.500;7.772;2023-05-23T15:40:54;17.50;99.90
13794;DHT22;31160;49.500;7.772;2023-05-23T15:43:22;17.50;99.90
13794;DHT22;31160;49.500;7.772;2023-05-23T15:45:50;17.40;99.90
13794;DHT22;31160;49.500;7.772;2023-05-23T15:48:18;17.40;99.90
13794;DHT22;31160;49.500;7.772;2023-05-23T15:50:44;17.50;99.90
13794;DHT22;31160;49.500;7.772;2023-05-23T15:53:11;17.50;99.90
13794;DHT22;31160;49.500;7.772;2023-05-23T15:55:38;17.50;99.90
13794;DHT22;31160;49.500;7.772;2023-05-23T15:58:08;17.70;99.90